createdAt,value
2023-04-06T00:00:19.170Z,48.18
2023-04-06T00:02:45.997Z,49.12
2023-04-06T00:05:12.800Z,49.44
2023-04-06T00:07:39.549Z,48.97
2023-04-06T00:10:06.694Z,49.46
2023-04-06T00:12:33.445Z,48.38
2023-04-06T00:15:00.175Z,48.72
2023-04-06T00:17:27.280Z,48.36
2023-04-06T00:19:54.017Z,48.75
2023-04-06T00:22:20.825Z,48.04
2023-04-06T00:24:47.481Z,49.13
2023-04-06T00:27:14.211Z,48.35
2023-04-06T00:29:41.121Z,48.47
2023-04-06T00:32:07.880Z,47.88
2023-04-06T00:34:34.579Z,48.03
2023-04-06T00:37:01.389Z,49.16
2023-04-06T00:39:28.125Z,48.86
2023-04-06T00:41:54.927Z,49.23
2023-04-06T00:44:21.841Z,48.98
2023-04-06T00:46:48.507Z,48.35
2023-04-06T00:49:15.242Z,50.11
2023-04-06T00:51:41.996Z,49.60
2023-04-06T00:54:08.724Z,48.41
2023-04-06T00:56:36.580Z,48.66
2023-04-06T00:59:03.343Z,48.79
2023-04-06T01:01:30.143Z,51.04
2023-04-06T01:03:56.893Z,51.19
2023-04-06T01:06:23.601Z,51.94
2023-04-06T01:08:50.345Z,50.96
2023-04-06T01:11:17.025Z,50.96
2023-04-06T01:13:43.765Z,50.99
2023-04-06T01:16:11.126Z,51.74
2023-04-06T01:18:38.646Z,51.53
2023-04-06T01:21:05.386Z,51.65
2023-04-06T01:23:32.055Z,52.65
2023-04-06T01:25:58.791Z,51.97
2023-04-06T01:28:25.463Z,52.29
2023-04-06T01:30:52.163Z,49.67
2023-04-06T01:33:18.852Z,50.62
2023-04-06T01:35:45.585Z,51.78
2023-04-06T01:38:12.312Z,51.70
2023-04-06T01:40:39.042Z,50.28
2023-04-06T01:43:05.704Z,51.19
2023-04-06T01:45:32.469Z,50.88
2023-04-06T01:47:59.219Z,50.52
2023-04-06T01:50:25.913Z,51.36
2023-04-06T01:52:52.595Z,51.17
2023-04-06T01:55:19.359Z,50.60
2023-04-06T01:57:46.030Z,50.79
2023-04-06T02:00:13.121Z,50.75
2023-04-06T02:02:39.918Z,50.27
2023-04-06T02:05:06.901Z,50.87
2023-04-06T02:07:33.773Z,50.70
2023-04-06T02:10:00.482Z,50.84
2023-04-06T02:12:27.175Z,51.27
2023-04-06T02:14:53.904Z,52.44
2023-04-06T02:17:20.676Z,51.90
2023-04-06T02:19:47.381Z,51.65
2023-04-06T02:22:14.094Z,53.00
2023-04-06T02:24:41.314Z,52.73
2023-04-06T02:27:08.011Z,53.53
2023-04-06T02:29:34.710Z,53.70
2023-04-06T02:32:01.506Z,52.17
2023-04-06T02:34:28.297Z,51.51
2023-04-06T02:36:55.042Z,51.49
2023-04-06T02:39:21.749Z,51.39
2023-04-06T02:41:48.445Z,51.14
2023-04-06T02:44:15.488Z,50.90
2023-04-06T02:46:42.166Z,50.10
2023-04-06T02:49:09.245Z,50.70
2023-04-06T02:51:36.320Z,51.06
2023-04-06T02:54:03.025Z,50.97
2023-04-06T02:56:29.679Z,51.04
2023-04-06T02:58:56.423Z,51.80
2023-04-06T03:01:23.182Z,52.02
2023-04-06T03:03:49.984Z,52.23
2023-04-06T03:06:16.794Z,53.71
2023-04-06T03:08:43.484Z,53.56
2023-04-06T03:11:10.162Z,54.74
2023-04-06T03:13:37.519Z,56.93
2023-04-06T03:16:04.386Z,56.73
2023-04-06T03:18:31.078Z,56.32
2023-04-06T03:20:57.828Z,56.33
2023-04-06T03:23:24.546Z,57.83
2023-04-06T03:25:51.339Z,58.32
2023-04-06T03:28:18.051Z,57.80
2023-04-06T03:30:44.789Z,59.30
2023-04-06T03:33:11.682Z,59.33
2023-04-06T03:35:38.453Z,58.37
2023-04-06T03:38:05.645Z,59.92
2023-04-06T03:40:32.529Z,59.35
2023-04-06T03:42:59.284Z,58.57
2023-04-06T03:45:26.168Z,58.50
2023-04-06T03:47:52.898Z,58.99
2023-04-06T03:50:19.602Z,58.97
2023-04-06T03:52:46.288Z,59.35
2023-04-06T03:55:12.969Z,59.74
2023-04-06T03:57:39.717Z,58.71
2023-04-06T04:00:06.998Z,58.32
2023-04-06T04:02:33.780Z,60.84
2023-04-06T04:05:00.676Z,59.37
2023-04-06T04:07:27.612Z,58.79
2023-04-06T04:09:54.266Z,59.87
2023-04-06T04:12:21.016Z,59.56
2023-04-06T04:14:47.761Z,59.52
2023-04-06T04:17:14.474Z,58.39
2023-04-06T04:19:41.550Z,57.86
2023-04-06T04:22:08.274Z,58.42
2023-04-06T04:24:34.999Z,58.48
2023-04-06T04:27:05.880Z,58.13
2023-04-06T04:29:32.568Z,58.88
2023-04-06T04:31:59.288Z,57.53
2023-04-06T04:34:26.417Z,57.18
2023-04-06T04:36:53.466Z,56.23
2023-04-06T04:39:20.420Z,54.80
2023-04-06T04:41:47.119Z,54.53
2023-04-06T04:44:13.796Z,53.64
2023-04-06T04:46:40.491Z,54.27
2023-04-06T04:49:07.256Z,52.84
2023-04-06T04:51:34.951Z,52.02
2023-04-06T04:54:01.619Z,50.56
2023-04-06T04:56:28.779Z,49.30
2023-04-06T04:58:55.615Z,49.18
2023-04-06T05:01:22.388Z,48.47
2023-04-06T05:03:49.216Z,47.99
2023-04-06T05:06:16.162Z,48.96
2023-04-06T05:08:43.211Z,49.15
2023-04-06T05:11:10.225Z,47.98
2023-04-06T05:13:37.124Z,47.75
2023-04-06T05:16:03.922Z,48.36
2023-04-06T05:18:30.750Z,49.49
2023-04-06T05:20:57.427Z,49.43
2023-04-06T05:23:24.110Z,47.27
2023-04-06T05:25:50.861Z,46.38
2023-04-06T05:28:17.743Z,44.90
2023-04-06T05:30:45.194Z,42.81
2023-04-06T05:33:12.145Z,41.09
2023-04-06T05:35:38.889Z,39.67
2023-04-06T05:38:07.214Z,37.55
2023-04-06T05:40:33.904Z,36.13
2023-04-06T05:43:00.799Z,35.41
2023-04-06T05:45:27.555Z,35.45
2023-04-06T05:47:54.296Z,35.81
2023-04-06T05:50:21.125Z,34.74
2023-04-06T05:52:47.851Z,33.99
2023-04-06T05:55:14.544Z,35.91
2023-04-06T05:58:12.423Z,34.79
2023-04-06T06:00:39.147Z,34.36
2023-04-06T06:03:07.202Z,34.85
2023-04-06T06:05:34.070Z,34.21
2023-04-06T06:08:03.402Z,33.56
2023-04-06T06:10:30.158Z,32.94
2023-04-06T06:12:56.823Z,32.35
2023-04-06T06:15:23.544Z,32.97
2023-04-06T06:17:50.289Z,32.05
2023-04-06T06:20:17.132Z,32.77
2023-04-06T06:22:43.798Z,32.86
2023-04-06T06:25:10.478Z,34.27
2023-04-06T06:27:37.694Z,34.49
2023-04-06T06:30:04.632Z,33.86
2023-04-06T06:32:31.402Z,33.12
2023-04-06T06:34:58.123Z,34.41
2023-04-06T06:37:24.855Z,34.36
2023-04-06T06:39:51.579Z,33.98
2023-04-06T06:42:18.310Z,34.17
2023-04-06T06:44:45.002Z,34.93
2023-04-06T06:47:11.728Z,35.83
2023-04-06T06:49:38.445Z,35.40
2023-04-06T06:52:05.128Z,36.10
2023-04-06T06:54:31.839Z,35.82
2023-04-06T06:56:58.572Z,37.20
2023-04-06T06:59:25.266Z,35.95
2023-04-06T07:01:51.983Z,35.96
2023-04-06T07:04:18.671Z,35.52
2023-04-06T07:06:45.374Z,35.88
2023-04-06T07:09:12.155Z,35.09
2023-04-06T07:11:38.819Z,35.63
2023-04-06T07:14:06.048Z,36.03
2023-04-06T07:16:32.835Z,34.71
2023-04-06T07:18:59.624Z,33.89
2023-04-06T07:21:26.411Z,33.49
2023-04-06T07:23:53.173Z,34.64
2023-04-06T07:26:19.913Z,35.94
2023-04-06T07:28:46.677Z,35.00
2023-04-06T07:31:13.345Z,33.38
2023-04-06T07:33:40.051Z,34.42
2023-04-06T07:36:06.827Z,33.36
2023-04-06T07:38:33.609Z,34.65
2023-04-06T07:41:00.398Z,34.03
2023-04-06T07:43:27.270Z,36.17
2023-04-06T07:45:54.999Z,35.48
2023-04-06T07:48:21.737Z,36.04
2023-04-06T07:50:48.398Z,36.11
2023-04-06T07:53:15.090Z,35.87
2023-04-06T07:55:41.795Z,36.05
2023-04-06T07:58:09.011Z,36.25
2023-04-06T08:00:35.736Z,36.34
2023-04-06T08:03:02.503Z,37.31
2023-04-06T08:05:29.282Z,37.19
2023-04-06T08:07:56.010Z,37.00
2023-04-06T08:10:22.777Z,35.71
2023-04-06T08:12:49.473Z,37.39
2023-04-06T08:15:16.185Z,37.87
2023-04-06T08:17:42.892Z,36.58
2023-04-06T08:20:09.788Z,36.47
2023-04-06T08:22:36.487Z,35.38
2023-04-06T08:25:03.214Z,35.54
2023-04-06T08:27:29.918Z,36.31
2023-04-06T08:29:56.648Z,37.31
2023-04-06T08:32:23.356Z,37.62
2023-04-06T08:34:50.018Z,35.89
2023-04-06T08:37:16.762Z,38.54
2023-04-06T08:39:43.525Z,36.75
2023-04-06T08:42:15.650Z,36.48
2023-04-06T08:44:42.413Z,36.16
2023-04-06T08:47:09.097Z,37.68
2023-04-06T08:49:35.943Z,37.37
2023-04-06T08:52:02.669Z,38.31
2023-04-06T08:54:29.380Z,38.24
2023-04-06T08:56:57.583Z,36.45
2023-04-06T08:59:24.929Z,36.57
2023-04-06T09:01:51.704Z,35.85
2023-04-06T09:04:18.870Z,35.80
2023-04-06T09:06:46.005Z,37.45
2023-04-06T09:09:12.974Z,34.66
2023-04-06T09:12:04.573Z,34.58
2023-04-06T09:14:38.274Z,35.38
2023-04-06T09:17:05.055Z,34.45
2023-04-06T09:19:31.796Z,33.76
2023-04-06T09:22:05.641Z,34.27
2023-04-06T09:24:44.807Z,34.34
2023-04-06T09:27:11.489Z,34.45
2023-04-06T09:29:38.183Z,34.97
2023-04-06T09:32:05.748Z,35.07
2023-04-06T09:34:32.617Z,34.04
2023-04-06T09:36:59.737Z,35.54
2023-04-06T09:39:27.554Z,35.46
2023-04-06T09:41:55.495Z,34.85
2023-04-06T09:44:22.458Z,33.69
2023-04-06T09:46:59.035Z,33.99
2023-04-06T09:49:28.731Z,34.57
2023-04-06T09:51:57.271Z,34.17
2023-04-06T09:54:24.273Z,33.09
2023-04-06T09:57:12.602Z,33.22
2023-04-06T09:59:52.345Z,33.58
2023-04-06T10:02:34.660Z,33.24
2023-04-06T10:05:04.248Z,33.11
2023-04-06T10:07:31.082Z,31.83
2023-04-06T10:09:57.832Z,32.83
2023-04-06T10:12:24.570Z,31.98
2023-04-06T10:14:51.396Z,31.13
2023-04-06T10:17:18.108Z,32.16
2023-04-06T10:19:55.409Z,33.57
2023-04-06T10:22:33.926Z,33.64
2023-04-06T10:25:00.735Z,33.57
2023-04-06T10:27:30.990Z,33.19
2023-04-06T10:30:06.802Z,33.51
2023-04-06T10:32:37.447Z,32.85
2023-04-06T10:35:10.717Z,32.53
2023-04-06T10:38:03.440Z,33.24
2023-04-06T10:40:30.435Z,34.20
2023-04-06T10:42:58.017Z,32.17
2023-04-06T10:45:25.721Z,32.91
2023-04-06T10:47:57.350Z,32.97
2023-04-06T10:50:24.281Z,33.36
2023-04-06T10:53:00.566Z,33.92
2023-04-06T10:55:30.391Z,34.27
2023-04-06T10:57:57.221Z,35.13
2023-04-06T11:00:24.247Z,33.85
2023-04-06T11:02:51.066Z,32.21
2023-04-06T11:05:18.031Z,31.23
2023-04-06T11:07:45.338Z,32.24
2023-04-06T11:10:16.833Z,30.72
2023-04-06T11:12:45.258Z,32.08
2023-04-06T11:15:12.114Z,34.22
2023-04-06T11:17:38.893Z,35.05
2023-04-06T11:20:06.011Z,33.48
2023-04-06T11:22:32.775Z,32.24
2023-04-06T11:25:06.150Z,32.88
2023-04-06T11:27:33.332Z,32.35
2023-04-06T11:30:01.059Z,33.23
2023-04-06T11:32:27.761Z,31.98
2023-04-06T11:34:54.613Z,31.92
2023-04-06T11:37:21.384Z,33.08
2023-04-06T11:39:50.476Z,33.77
2023-04-06T11:42:26.584Z,35.32
2023-04-06T11:44:54.902Z,34.35
2023-04-06T11:47:23.538Z,33.88
2023-04-06T11:49:51.343Z,33.49
2023-04-06T11:52:18.027Z,32.74
2023-04-06T11:54:44.728Z,32.16
2023-04-06T11:57:11.467Z,33.50
2023-04-06T11:59:38.249Z,34.36
2023-04-06T12:02:05.190Z,34.89
2023-04-06T12:04:32.240Z,34.12
2023-04-06T12:06:59.127Z,33.34
2023-04-06T12:09:25.917Z,33.01
2023-04-06T12:11:52.679Z,33.25
2023-04-06T12:14:19.412Z,34.10
2023-04-06T12:16:46.296Z,34.97
2023-04-06T12:19:12.976Z,33.72
2023-04-06T12:21:39.639Z,33.72
2023-04-06T12:24:06.629Z,33.84
2023-04-06T12:26:33.825Z,33.32
2023-04-06T12:29:10.256Z,33.43
2023-04-06T12:31:37.258Z,33.60
2023-04-06T12:34:04.544Z,33.36
2023-04-06T12:36:32.316Z,33.74
2023-04-06T12:38:59.631Z,33.16
2023-04-06T12:41:26.366Z,33.98
2023-04-06T12:43:53.144Z,34.22
2023-04-06T12:46:19.951Z,33.81
2023-04-06T12:48:47.394Z,33.25
2023-04-06T12:51:14.087Z,32.41
2023-04-06T12:53:41.128Z,32.42
2023-04-06T12:56:14.720Z,31.85
2023-04-06T12:58:42.996Z,33.35
2023-04-06T13:01:10.333Z,32.46
2023-04-06T13:03:37.379Z,32.82
2023-04-06T13:06:04.200Z,32.87
2023-04-06T13:08:31.057Z,32.62
2023-04-06T13:10:57.819Z,32.21
2023-04-06T13:13:25.488Z,32.40
2023-04-06T13:15:52.849Z,31.76
2023-04-06T13:18:19.787Z,33.20
2023-04-06T13:20:47.721Z,32.64
2023-04-06T13:23:14.546Z,32.41
2023-04-06T13:25:41.285Z,31.93
2023-04-06T13:28:08.345Z,31.96
2023-04-06T13:30:35.197Z,31.80
2023-04-06T13:33:01.998Z,32.90
2023-04-06T13:35:28.731Z,32.52
2023-04-06T13:37:55.428Z,32.41
2023-04-06T13:40:22.129Z,32.68
2023-04-06T13:42:48.845Z,33.58
2023-04-06T13:45:15.826Z,33.26
2023-04-06T13:47:42.584Z,33.78
2023-04-06T13:50:09.483Z,33.42
2023-04-06T13:52:37.234Z,33.84
2023-04-06T13:55:03.980Z,33.55
2023-04-06T13:57:31.246Z,34.46
2023-04-06T13:59:57.930Z,35.88
2023-04-06T14:02:28.498Z,35.41
2023-04-06T14:04:55.665Z,34.69
2023-04-06T14:07:24.619Z,35.20
2023-04-06T14:09:51.403Z,35.38
2023-04-06T14:12:18.077Z,35.81
2023-04-06T14:14:45.013Z,35.00
2023-04-06T14:17:11.732Z,33.81
2023-04-06T14:19:38.814Z,34.62
2023-04-06T14:22:05.833Z,35.57
2023-04-06T14:24:32.637Z,35.22
2023-04-06T14:26:59.337Z,34.80
2023-04-06T14:29:26.204Z,34.76
2023-04-06T14:31:52.886Z,34.77
2023-04-06T14:34:19.564Z,34.81
2023-04-06T14:36:46.833Z,34.71
2023-04-06T14:39:13.614Z,34.24
2023-04-06T14:41:40.894Z,34.05
2023-04-06T14:44:07.925Z,34.43
2023-04-06T14:46:34.661Z,35.01
2023-04-06T14:49:01.487Z,34.36
2023-04-06T14:51:30.909Z,33.42
2023-04-06T14:53:57.764Z,33.60
2023-04-06T14:56:24.921Z,32.84
2023-04-06T14:58:54.975Z,33.24
2023-04-06T15:01:22.010Z,34.32
2023-04-06T15:03:49.014Z,35.40
2023-04-06T15:06:20.630Z,35.89
2023-04-06T15:08:47.806Z,35.38
2023-04-06T15:11:14.506Z,35.08
2023-04-06T15:13:41.182Z,35.42
2023-04-06T15:16:08.124Z,34.50
2023-04-06T15:18:35.147Z,35.71
2023-04-06T15:21:02.026Z,35.39
2023-04-06T15:23:31.565Z,35.81
2023-04-06T15:25:58.855Z,36.21
2023-04-06T15:28:25.639Z,36.00
2023-04-06T15:30:52.613Z,35.99
2023-04-06T15:33:20.651Z,36.50
2023-04-06T15:35:47.625Z,35.28
2023-04-06T15:38:14.433Z,35.20
2023-04-06T15:40:47.672Z,34.80
2023-04-06T15:43:14.571Z,34.33
2023-04-06T15:45:41.883Z,35.13
2023-04-06T15:48:08.671Z,35.31
2023-04-06T15:50:36.084Z,35.90
2023-04-06T15:53:02.765Z,36.12
2023-04-06T15:55:29.446Z,35.91
2023-04-06T15:57:56.131Z,35.38
2023-04-06T16:00:22.956Z,35.75
2023-04-06T16:02:49.861Z,35.56
2023-04-06T16:05:16.696Z,35.53
2023-04-06T16:07:43.349Z,35.67
2023-04-06T16:10:10.570Z,37.17
2023-04-06T16:12:37.315Z,38.92
2023-04-06T16:15:04.143Z,39.00
2023-04-06T16:17:30.842Z,38.98
2023-04-06T16:19:57.522Z,39.26
2023-04-06T16:22:24.193Z,39.25
2023-04-06T16:24:50.971Z,39.59
2023-04-06T16:27:17.874Z,39.88
2023-04-06T16:29:44.578Z,40.67
2023-04-06T16:32:12.354Z,40.38
2023-04-06T16:34:39.149Z,40.24
2023-04-06T16:37:05.907Z,40.15
2023-04-06T16:39:32.596Z,40.58
2023-04-06T16:42:00.123Z,40.15
2023-04-06T16:44:29.403Z,39.76
2023-04-06T16:46:56.709Z,40.79
2023-04-06T16:49:23.377Z,40.48
2023-04-06T16:51:50.121Z,41.14
2023-04-06T16:54:17.140Z,40.86
2023-04-06T16:56:43.884Z,40.64
2023-04-06T16:59:10.895Z,40.15
2023-04-06T17:01:37.747Z,40.12
2023-04-06T17:04:04.654Z,40.27
2023-04-06T17:06:31.426Z,41.10
2023-04-06T17:09:00.016Z,40.59
2023-04-06T17:11:32.810Z,41.43
2023-04-06T17:14:10.163Z,40.70
2023-04-06T17:16:36.844Z,40.99
2023-04-06T17:19:03.553Z,40.26
2023-04-06T17:21:31.091Z,40.16
2023-04-06T17:23:57.759Z,40.70
2023-04-06T17:26:25.090Z,40.49
2023-04-06T17:28:51.759Z,40.61
2023-04-06T17:31:18.536Z,40.79
2023-04-06T17:33:45.373Z,40.68
2023-04-06T17:36:12.592Z,41.13
2023-04-06T17:38:43.499Z,40.91
2023-04-06T17:41:10.826Z,40.68
2023-04-06T17:43:37.548Z,40.30
2023-04-06T17:46:04.326Z,41.11
2023-04-06T17:48:31.814Z,40.37
2023-04-06T17:50:58.466Z,40.88
2023-04-06T17:53:25.114Z,41.00
2023-04-06T17:55:51.806Z,40.53
2023-04-06T17:58:18.514Z,41.27
2023-04-06T18:00:45.196Z,40.75
2023-04-06T18:03:11.885Z,40.65
2023-04-06T18:05:39.756Z,41.04
2023-04-06T18:08:06.575Z,41.50
2023-04-06T18:10:37.056Z,41.16
2023-04-06T18:13:03.742Z,41.43
2023-04-06T18:15:31.534Z,42.33
2023-04-06T18:17:58.298Z,42.85
2023-04-06T18:20:25.090Z,42.08
2023-04-06T18:22:52.560Z,43.41
2023-04-06T18:25:19.268Z,43.87
2023-04-06T18:27:46.185Z,44.12
2023-04-06T18:30:14.226Z,44.61
2023-04-06T18:32:41.017Z,44.43
2023-04-06T18:35:09.381Z,45.54
2023-04-06T18:37:36.814Z,45.16
2023-04-06T18:40:04.286Z,46.13
2023-04-06T18:42:31.035Z,46.37
2023-04-06T18:44:57.712Z,46.50
2023-04-06T18:47:24.400Z,46.66
2023-04-06T18:49:51.254Z,46.72
2023-04-06T18:52:18.043Z,46.46
2023-04-06T18:54:44.709Z,46.50
2023-04-06T18:57:12.533Z,46.26
2023-04-06T18:59:39.244Z,45.12
2023-04-06T19:02:06.188Z,46.23
2023-04-06T19:04:33.054Z,45.66
2023-04-06T19:07:01.038Z,45.99
2023-04-06T19:09:28.474Z,46.46
2023-04-06T19:11:55.108Z,46.59
2023-04-06T19:14:21.988Z,47.68
2023-04-06T19:16:52.596Z,48.12
2023-04-06T19:19:19.720Z,48.72
2023-04-06T19:21:46.644Z,49.33
2023-04-06T19:24:13.321Z,50.83
2023-04-06T19:26:39.967Z,51.28
2023-04-06T19:29:06.660Z,51.36
2023-04-06T19:31:33.392Z,53.38
2023-04-06T19:34:00.128Z,53.90
2023-04-06T19:36:26.860Z,53.93
2023-04-06T19:38:53.556Z,54.60
2023-04-06T19:41:21.524Z,54.39
2023-04-06T19:43:48.241Z,53.93
2023-04-06T19:46:15.690Z,54.31
2023-04-06T19:48:42.523Z,54.28
2023-04-06T19:51:09.297Z,53.86
2023-04-06T19:53:36.792Z,54.37
2023-04-06T19:56:03.439Z,54.83
2023-04-06T19:58:30.125Z,54.91
2023-04-06T20:00:56.813Z,55.68
2023-04-06T20:03:23.615Z,54.27
2023-04-06T20:05:50.487Z,56.10
2023-04-06T20:08:17.192Z,56.56
2023-04-06T20:10:43.911Z,57.62
2023-04-06T20:13:10.589Z,57.25
2023-04-06T20:15:37.296Z,57.43
2023-04-06T20:18:04.074Z,57.27
2023-04-06T20:20:31.108Z,56.91
2023-04-06T20:22:57.779Z,57.42
2023-04-06T20:25:24.491Z,57.73
2023-04-06T20:27:52.110Z,57.70
2023-04-06T20:30:18.779Z,58.39
2023-04-06T20:32:45.629Z,57.48
2023-04-06T20:35:12.415Z,56.89
2023-04-06T20:37:39.283Z,57.70
2023-04-06T20:40:06.215Z,58.36
2023-04-06T20:42:32.873Z,58.33
2023-04-06T20:44:59.653Z,59.07
2023-04-06T20:47:27.352Z,59.24
2023-04-06T20:49:54.237Z,59.19
2023-04-06T20:52:21.100Z,59.15
2023-04-06T20:54:48.609Z,59.01
2023-04-06T20:57:15.608Z,59.89
2023-04-06T20:59:42.358Z,61.03
2023-04-06T21:02:09.112Z,61.09
2023-04-06T21:04:36.063Z,59.85
2023-04-06T21:07:09.204Z,60.96
2023-04-06T21:09:36.582Z,60.26
2023-04-06T21:12:03.785Z,60.31
2023-04-06T21:14:30.692Z,59.77
2023-04-06T21:16:58.165Z,59.98
2023-04-06T21:19:24.952Z,60.22
2023-04-06T21:21:51.785Z,60.26
2023-04-06T21:24:18.797Z,60.23
2023-04-06T21:26:45.884Z,60.86
2023-04-06T21:29:12.563Z,60.43
2023-04-06T21:31:42.086Z,60.68
2023-04-06T21:34:12.278Z,60.64
2023-04-06T21:36:39.477Z,59.47
2023-04-06T21:39:06.341Z,59.08
2023-04-06T21:41:33.520Z,58.53
2023-04-06T21:44:00.196Z,58.22
2023-04-06T21:46:26.901Z,58.78
2023-04-06T21:48:53.626Z,58.97
2023-04-06T21:51:20.663Z,58.77
2023-04-06T21:53:47.359Z,59.11
2023-04-06T21:56:14.244Z,58.91
2023-04-06T21:58:41.904Z,59.93
2023-04-06T22:01:11.740Z,58.78
2023-04-06T22:03:39.058Z,58.99
2023-04-06T22:06:06.556Z,59.99
2023-04-06T22:08:34.350Z,59.43
2023-04-06T22:11:01.243Z,59.29
2023-04-06T22:13:28.401Z,59.93
2023-04-06T22:15:55.431Z,58.34
2023-04-06T22:18:22.317Z,58.41
2023-04-06T22:20:49.028Z,58.82
2023-04-06T22:23:15.758Z,58.78
2023-04-06T22:25:42.384Z,58.16
2023-04-06T22:28:09.201Z,57.98
2023-04-06T22:30:35.899Z,58.18
2023-04-06T22:33:02.551Z,58.64
2023-04-06T22:35:29.249Z,57.84
2023-04-06T22:37:55.989Z,57.70
2023-04-06T22:40:23.143Z,57.91
2023-04-06T22:42:49.796Z,58.12
2023-04-06T22:45:16.515Z,57.19
2023-04-06T22:47:43.937Z,57.10
2023-04-06T22:50:10.915Z,56.63
2023-04-06T22:52:37.750Z,57.21
2023-04-06T22:55:04.857Z,55.88
2023-04-06T22:57:31.660Z,56.81
2023-04-06T22:59:58.412Z,57.28
2023-04-06T23:02:25.114Z,57.54
2023-04-06T23:04:51.810Z,57.66
2023-04-06T23:07:18.503Z,57.42
2023-04-06T23:09:45.201Z,57.59
2023-04-06T23:12:12.015Z,57.38
2023-04-06T23:14:38.686Z,57.71
2023-04-06T23:17:05.645Z,58.05
2023-04-06T23:19:32.512Z,57.77
2023-04-06T23:21:59.991Z,57.24
2023-04-06T23:24:27.699Z,57.79
2023-04-06T23:26:54.389Z,57.84
2023-04-06T23:29:21.057Z,58.93
2023-04-06T23:31:47.736Z,57.81
2023-04-06T23:34:14.458Z,59.68
2023-04-06T23:36:41.181Z,59.53
2023-04-06T23:39:07.908Z,59.75
2023-04-06T23:41:34.599Z,60.02
2023-04-06T23:44:01.296Z,60.36
2023-04-06T23:46:28.070Z,58.70
2023-04-06T23:48:54.923Z,58.29
2023-04-06T23:51:21.765Z,58.29
2023-04-06T23:53:48.462Z,58.59
2023-04-06T23:56:15.136Z,57.55
2023-04-06T23:58:41.845Z,58.25
